Terminal Aerodrome Forecast
Issued by NWS Indianapolis, IN

Home | Current Version | Previous Version | Text Only | Print | Product List | Glossary On
Versions: 1 2 3 4 5 6 7 8 9 10 11 12 13 14 15 16 17 18 19 20 21 22 23 24 25 26
000
FTUS43 KIND 310800 AAA
TAFIND
TAF AMD
KIND 310844Z 3109/0112 17003KT P6SM SKC
     FM311400 22010KT P6SM BKN250
     FM312100 22010KT P6SM OVC080
     FM010100 21008KT 4SM -SN SCT025 OVC050
      TEMPO 0101/0104 1 1/2SM -SN BKN025 OVC040=

USA.gov is the U.S. government's official web portal to all federal, state and local government web resources and services.